Time;durP1;ratioP1;P1;durP2;ratioP2;P2;SDS_P1;SDS_P2;PMS_P1;PMS_P2;Temp;Humidity;BMP_temperature;BMP_pressure;BME280_temperature;BME280_humidity;BME280_pressure;Samples;Min_cycle;Max_cycle;Signal;HPM_P1;HPM_P2
2021/09/25 00:02:14;;;;;;;16.95;3.45;;;;;;;18.92;100.00;101415.94;5073201;28;20055;-39
2021/09/25 00:04:42;;;;;;;15.30;4.07;;;;;;;18.94;100.00;101418.44;5072798;28;20519;-40
2021/09/25 00:07:10;;;;;;;17.67;3.50;;;;;;;18.96;100.00;101420.94;5061931;28;20049;-40
2021/09/25 00:09:40;;;;;;;13.23;3.20;;;;;;;18.96;100.00;101413.28;5072907;28;20053;-40
2021/09/25 00:12:10;;;;;;;13.73;3.55;;;;;;;18.96;100.00;101415.28;5072917;28;20058;-39
2021/09/25 00:14:40;;;;;;;16.05;3.40;;;;;;;18.98;100.00;101418.59;5072703;28;20071;-41
2021/09/25 00:17:10;;;;;;;14.82;3.42;;;;;;;18.98;100.00;101415.75;5072958;28;20489;-37
2021/09/25 00:19:39;;;;;;;11.93;3.22;;;;;;;18.98;100.00;101410.09;5071738;28;20045;-35
2021/09/25 00:22:07;;;;;;;12.88;4.03;;;;;;;18.98;100.00;101418.59;5073079;28;20122;-37
2021/09/25 00:24:35;;;;;;;10.18;2.88;;;;;;;19.00;100.00;101416.22;5072724;28;20470;-38
2021/09/25 00:27:03;;;;;;;10.45;2.70;;;;;;;19.01;100.00;101417.88;5072166;28;20049;-42
2021/09/25 00:29:31;;;;;;;9.10;2.53;;;;;;;19.02;100.00;101420.38;5072618;28;20047;-38
2021/09/25 00:32:01;;;;;;;10.55;2.95;;;;;;;19.03;100.00;101427.69;5072237;28;20513;-36
2021/09/25 00:34:29;;;;;;;13.52;2.65;;;;;;;19.03;100.00;101426.84;5072185;28;20053;-35
2021/09/25 00:36:57;;;;;;;8.80;2.38;;;;;;;19.04;100.00;101414.38;5072478;28;20052;-42
2021/09/25 00:39:25;;;;;;;16.40;3.33;;;;;;;19.05;100.00;101418.84;5072534;28;20102;-42
2021/09/25 00:41:53;;;;;;;11.10;2.85;;;;;;;19.06;100.00;101420.50;5070344;28;20898;-41
2021/09/25 00:44:23;;;;;;;9.27;2.75;;;;;;;19.08;100.00;101424.66;5072462;28;20060;-42
2021/09/25 00:46:50;;;;;;;11.65;2.67;;;;;;;19.09;100.00;101425.50;5072194;28;20102;-37
2021/09/25 00:49:21;;;;;;;17.52;3.72;;;;;;;19.08;100.00;101429.50;5071706;28;20044;-38
2021/09/25 00:51:50;;;;;;;11.75;3.08;;;;;;;19.07;100.00;101425.00;5071991;28;20136;-41
2021/09/25 00:54:19;;;;;;;12.73;3.22;;;;;;;19.07;100.00;101427.84;5071901;28;20087;-39
2021/09/25 00:56:49;;;;;;;15.18;2.92;;;;;;;19.06;100.00;101426.16;5071797;28;20045;-37
2021/09/25 00:59:18;;;;;;;11.95;3.13;;;;;;;19.04;100.00;101429.34;5072384;28;20052;-39
2021/09/25 01:01:47;;;;;;;11.43;3.03;;;;;;;19.04;100.00;101435.00;5071094;28;20486;-36
2021/09/25 01:04:15;;;;;;;10.10;2.97;;;;;;;19.02;100.00;101426.03;5072194;28;20044;-39
2021/09/25 01:06:45;;;;;;;11.93;2.78;;;;;;;19.03;100.00;101430.50;5071753;28;20076;-37
2021/09/25 01:09:13;;;;;;;13.38;2.95;;;;;;;19.02;100.00;101422.38;5071404;28;20057;-37
2021/09/25 01:11:42;;;;;;;15.10;3.28;;;;;;;19.01;100.00;101426.38;5071757;28;20072;-38
2021/09/25 01:14:10;;;;;;;11.23;3.63;;;;;;;19.00;100.00;101428.38;5072035;28;20052;-37
2021/09/25 01:16:38;;;;;;;14.90;3.60;;;;;;;18.99;100.00;101423.88;5071097;28;20046;-35
2021/09/25 01:19:06;;;;;;;10.43;2.95;;;;;;;18.99;100.00;101426.72;5071816;28;20036;-40
2021/09/25 01:21:35;;;;;;;13.18;3.25;;;;;;;19.00;100.00;101416.22;5071698;28;20075;-40
2021/09/25 01:24:03;;;;;;;11.20;2.95;;;;;;;19.00;100.00;101422.72;5071024;28;20048;-40
2021/09/25 01:26:31;;;;;;;13.45;3.33;;;;;;;19.01;100.00;101426.38;5071488;28;20036;-36
2021/09/25 01:28:59;;;;;;;12.75;3.08;;;;;;;19.02;100.00;101425.19;5071315;28;20040;-38
2021/09/25 01:31:27;;;;;;;11.00;2.83;;;;;;;19.02;100.00;101426.03;5070185;28;20513;-38
2021/09/25 01:33:55;;;;;;;6.28;2.03;;;;;;;19.03;100.00;101424.84;5071252;28;20132;-41
2021/09/25 01:36:23;;;;;;;9.23;2.60;;;;;;;19.04;100.00;101434.16;5071268;28;20059;-36
2021/09/25 01:38:52;;;;;;;10.57;3.08;;;;;;;19.05;100.00;101433.84;5070926;28;20067;-39
2021/09/25 01:41:20;;;;;;;10.77;3.05;;;;;;;19.04;100.00;101426.50;5071504;28;20063;-37
2021/09/25 01:43:48;;;;;;;9.60;2.92;;;;;;;19.05;100.00;101424.50;5070304;28;20111;-37
2021/09/25 01:46:18;;;;;;;11.18;3.00;;;;;;;19.05;100.00;101424.50;5071290;28;20055;-42
2021/09/25 01:48:46;;;;;;;12.15;3.22;;;;;;;19.04;100.00;101437.00;5070838;28;20604;-40
2021/09/25 01:51:14;;;;;;;7.03;2.00;;;;;;;19.04;100.00;101431.34;5070654;28;20083;-41
2021/09/25 01:53:42;;;;;;;8.73;2.30;;;;;;;19.02;100.00;101425.19;5071079;28;20086;-41
2021/09/25 01:56:13;;;;;;;10.18;2.60;;;;;;;19.00;100.00;101427.53;5071124;28;20079;-36
2021/09/25 01:58:42;;;;;;;10.40;2.57;;;;;;;18.96;100.00;101429.41;5070488;28;20075;-38
2021/09/25 02:01:11;;;;;;;19.30;3.22;;;;;;;18.95;100.00;101436.25;5071058;28;20087;-39
2021/09/25 02:03:39;;;;;;;11.30;2.70;;;;;;;18.91;100.00;101436.91;5070694;28;20457;-37
2021/09/25 02:06:10;;;;;;;10.48;2.70;;;;;;;18.90;100.00;101432.44;5059735;28;20067;-41
2021/09/25 02:08:41;;;;;;;15.50;4.05;;;;;;;18.89;100.00;101439.25;5070590;28;20675;-40
2021/09/25 02:11:10;;;;;;;13.15;3.83;;;;;;;18.85;100.00;101429.78;5071252;28;20068;-39
2021/09/25 02:13:39;;;;;;;9.48;2.60;;;;;;;18.84;100.00;101435.78;5069825;28;20413;-36
2021/09/25 02:16:06;;;;;;;9.32;2.20;;;;;;;18.83;100.00;101434.97;5070750;28;20052;-35
2021/09/25 02:18:34;;;;;;;6.95;2.08;;;;;;;18.83;100.00;101432.13;5070853;28;20084;-41
2021/09/25 02:21:02;;;;;;;10.95;2.75;;;;;;;18.83;100.00;101439.78;5070534;28;20068;-36
2021/09/25 02:23:31;;;;;;;12.70;3.40;;;;;;;18.81;100.00;101437.28;5070825;28;20147;-38
2021/09/25 02:25:59;;;;;;;8.50;2.42;;;;;;;18.79;100.00;101435.97;5070305;28;20464;-37
2021/09/25 02:28:30;;;;;;;9.95;2.85;;;;;;;18.79;100.00;101430.31;5070602;28;20139;-37
2021/09/25 02:30:58;;;;;;;9.93;2.80;;;;;;;18.79;100.00;101427.50;5067880;28;20600;-37
2021/09/25 02:33:27;;;;;;;8.88;2.35;;;;;;;18.77;100.00;101425.03;5070198;28;20068;-38
2021/09/25 02:35:55;;;;;;;11.00;3.30;;;;;;;18.76;100.00;101425.38;5070623;28;20080;-40
2021/09/25 02:38:22;;;;;;;15.15;3.05;;;;;;;18.74;100.00;101424.88;5070793;28;20060;-35
2021/09/25 02:40:50;;;;;;;9.80;3.22;;;;;;;18.72;100.00;101425.22;5070107;28;20051;-40
2021/09/25 02:43:18;;;;;;;9.63;2.90;;;;;;;18.72;100.00;101422.38;5074672;28;20059;-39
2021/09/25 02:45:47;;;;;;;11.43;2.63;;;;;;;18.72;100.00;101422.38;5074229;28;20044;-36
2021/09/25 02:48:15;;;;;;;10.38;2.90;;;;;;;18.70;100.00;101427.56;5074233;28;20524;-41
2021/09/25 02:50:43;;;;;;;11.90;3.22;;;;;;;18.70;100.00;101427.56;5074253;28;20050;-34
2021/09/25 02:53:11;;;;;;;8.50;3.05;;;;;;;18.68;100.00;101432.72;5074725;28;20063;-38
2021/09/25 02:55:39;;;;;;;9.90;2.90;;;;;;;18.69;100.00;101428.72;5073589;28;20037;-40
2021/09/25 02:58:07;;;;;;;9.38;2.90;;;;;;;18.68;100.00;101432.72;5074772;28;20403;-42
2021/09/25 03:00:35;;;;;;;9.68;2.95;;;;;;;18.65;100.00;101430.56;5073901;28;20124;-38
2021/09/25 03:03:04;;;;;;;10.25;3.35;;;;;;;18.64;100.00;101428.91;5063210;28;20048;-40
2021/09/25 03:05:33;;;;;;;8.00;3.10;;;;;;;18.60;100.00;101430.75;5074053;28;20045;-43
2021/09/25 03:08:01;;;;;;;6.38;2.58;;;;;;;18.58;100.00;101433.88;5073432;28;20041;-39
2021/09/25 03:10:29;;;;;;;7.43;2.08;;;;;;;18.56;100.00;101427.75;5074239;28;20473;-36
2021/09/25 03:12:57;;;;;;;8.93;3.00;;;;;;;18.53;100.00;101431.25;5070857;28;20059;-40
2021/09/25 03:15:24;;;;;;;10.32;3.15;;;;;;;18.51;100.00;101432.78;5073475;28;20070;-36
2021/09/25 03:17:52;;;;;;;4.75;2.10;;;;;;;18.48;100.00;101427.78;5073633;28;20044;-43
2021/09/25 03:20:21;;;;;;;6.85;3.10;;;;;;;18.44;100.00;101436.09;5074003;28;20047;-41
2021/09/25 03:22:49;;;;;;;10.73;3.75;;;;;;;18.41;100.00;101436.78;5073171;28;20066;-36
2021/09/25 03:25:17;;;;;;;11.25;4.03;;;;;;;18.40;100.00;101435.13;5073984;28;20414;-38
2021/09/25 03:27:45;;;;;;;11.02;3.92;;;;;;;18.42;100.00;101435.63;5073873;28;20048;-40
2021/09/25 03:30:14;;;;;;;8.23;3.10;;;;;;;18.41;100.00;101433.13;5073235;28;20052;-37
2021/09/25 03:32:42;;;;;;;11.55;3.45;;;;;;;18.41;100.00;101435.94;5073600;28;20058;-39
2021/09/25 03:35:10;;;;;;;8.02;3.17;;;;;;;18.43;100.00;101436.44;5073745;28;20040;-39
2021/09/25 03:37:39;;;;;;;12.80;3.60;;;;;;;18.45;100.00;101434.13;5071761;28;20113;-37
2021/09/25 03:40:09;;;;;;;5.20;2.15;;;;;;;18.47;100.00;101437.44;5073827;28;20084;-41
2021/09/25 03:42:37;;;;;;;8.80;3.10;;;;;;;18.47;100.00;101440.25;5073229;28;20093;-41
2021/09/25 03:45:06;;;;;;;8.38;2.88;;;;;;;18.49;100.00;101438.75;5073275;28;20052;-40
2021/09/25 03:47:34;;;;;;;5.93;2.63;;;;;;;18.50;100.00;101433.94;5072924;28;20101;-36
2021/09/25 03:50:03;;;;;;;7.93;2.90;;;;;;;18.51;100.00;101433.59;5073730;28;20055;-42
2021/09/25 03:52:30;;;;;;;7.82;2.60;;;;;;;18.54;100.00;101432.09;5072281;28;20133;-37
2021/09/25 03:55:00;;;;;;;7.72;2.88;;;;;;;18.54;100.00;101432.09;5073131;28;20053;-34
2021/09/25 03:57:27;;;;;;;8.10;2.92;;;;;;;18.55;100.00;101439.41;5072593;28;20871;-41
2021/09/25 03:59:55;;;;;;;8.55;3.45;;;;;;;18.56;100.00;101429.75;5062330;28;20066;-34
2021/09/25 04:02:23;;;;;;;9.07;3.30;;;;;;;18.56;100.00;101441.06;5071734;28;20044;-39
2021/09/25 04:04:51;;;;;;;10.55;3.60;;;;;;;18.56;100.00;101449.53;5072870;28;20074;-35
2021/09/25 04:07:19;;;;;;;6.53;2.92;;;;;;;18.57;100.00;101449.22;5073025;28;20526;-41
2021/09/25 04:09:47;;;;;;;5.95;3.28;;;;;;;18.57;100.00;101449.22;5072946;28;20455;-41
2021/09/25 04:12:16;;;;;;;7.57;3.35;;;;;;;18.57;100.00;101431.41;5072527;28;20087;-39
2021/09/25 04:14:44;;;;;;;6.78;3.05;;;;;;;18.57;100.00;101445.56;5072633;28;20405;-35
2021/09/25 04:17:12;;;;;;;10.65;4.30;;;;;;;18.56;100.00;101441.91;5073043;28;20129;-38
2021/09/25 04:19:40;;;;;;;9.38;3.92;;;;;;;18.56;100.00;101452.38;5072527;28;20075;-43
2021/09/25 04:22:07;;;;;;;15.90;4.70;;;;;;;18.53;100.00;101451.06;5073088;28;20039;-42
2021/09/25 04:24:35;;;;;;;10.35;4.07;;;;;;;18.50;100.00;101448.06;5072661;28;20048;-41
2021/09/25 04:27:03;;;;;;;9.82;4.00;;;;;;;18.48;100.00;101456.88;5072278;28;20131;-36
2021/09/25 04:29:32;;;;;;;9.40;3.60;;;;;;;18.48;100.00;101454.06;5069183;28;20056;-38
2021/09/25 04:32:00;;;;;;;6.43;2.83;;;;;;;18.48;100.00;101450.41;5072727;28;20044;-36
2021/09/25 04:34:29;;;;;;;6.88;3.08;;;;;;;18.47;100.00;101445.91;5071595;28;20423;-37
2021/09/25 04:36:57;;;;;;;10.20;4.30;;;;;;;18.47;100.00;101451.56;5072654;28;20425;-38
2021/09/25 04:39:25;;;;;;;7.78;3.65;;;;;;;18.47;100.00;101448.75;5071689;28;20103;-38
2021/09/25 04:41:53;;;;;;;5.80;3.10;;;;;;;18.48;100.00;101453.22;5072372;28;20131;-37
2021/09/25 04:44:21;;;;;;;16.30;4.93;;;;;;;18.49;100.00;101446.41;5071771;28;20390;-36
2021/09/25 04:46:50;;;;;;;8.95;3.38;;;;;;;18.50;100.00;101448.06;5069823;28;20506;-38
2021/09/25 04:49:18;;;;;;;8.85;4.15;;;;;;;18.50;100.00;101434.75;5069925;28;20048;-33
2021/09/25 04:51:46;;;;;;;13.18;4.88;;;;;;;18.52;100.00;101434.44;5071191;28;20052;-40
2021/09/25 04:54:14;;;;;;;10.20;4.55;;;;;;;18.53;100.00;101434.09;5070043;28;20059;-37
2021/09/25 04:56:41;;;;;;;10.38;4.38;;;;;;;18.53;100.00;101438.91;5071152;28;20119;-41
2021/09/25 04:59:09;;;;;;;9.10;4.15;;;;;;;18.54;100.00;101434.91;5070919;28;20056;-36
2021/09/25 05:01:38;;;;;;;9.95;4.15;;;;;;;18.54;100.00;101437.75;5071487;28;20044;-37
2021/09/25 05:04:10;;;;;;;8.00;3.78;;;;;;;18.52;100.00;101429.59;5071701;28;20051;-39
2021/09/25 05:06:37;;;;;;;10.48;4.38;;;;;;;18.50;100.00;101431.94;5071417;28;20044;-36
2021/09/25 05:09:05;;;;;;;10.45;4.50;;;;;;;18.49;100.00;101441.59;5071129;28;20087;-36
2021/09/25 05:11:33;;;;;;;11.40;4.20;;;;;;;18.48;100.00;101439.94;5071807;28;20059;-38
2021/09/25 05:14:01;;;;;;;10.43;4.00;;;;;;;18.48;100.00;101448.41;5071633;28;20494;-39
2021/09/25 05:16:29;;;;;;;12.38;4.10;;;;;;;18.50;100.00;101450.88;5070606;28;20135;-39
2021/09/25 05:18:57;;;;;;;9.25;3.30;;;;;;;18.51;100.00;101455.38;5070359;28;20127;-42
2021/09/25 05:21:26;;;;;;;7.93;3.75;;;;;;;18.51;100.00;101449.72;5070940;28;20040;-43
2021/09/25 05:23:54;;;;;;;11.10;3.88;;;;;;;18.51;100.00;101461.03;5070908;28;20105;-38
2021/09/25 05:26:22;;;;;;;8.15;3.38;;;;;;;18.51;100.00;101466.69;5070974;28;20583;-36
2021/09/25 05:28:50;;;;;;;9.43;4.07;;;;;;;18.50;100.00;101460.19;5070773;28;20155;-37
2021/09/25 05:31:18;;;;;;;5.15;2.78;;;;;;;18.53;100.00;101458.69;5070600;28;20139;-39
2021/09/25 05:33:46;;;;;;;7.75;2.95;;;;;;;18.54;100.00;101464.00;5071145;28;20125;-38
2021/09/25 05:36:14;;;;;;;5.18;2.33;;;;;;;18.55;100.00;101467.66;5067523;28;20510;-37
2021/09/25 05:38:43;;;;;;;5.18;2.50;;;;;;;18.56;100.00;101467.34;5071331;28;20036;-43
2021/09/25 05:41:11;;;;;;;8.10;3.35;;;;;;;18.56;100.00;101463.69;5070708;28;20048;-40
2021/09/25 05:43:39;;;;;;;6.40;2.35;;;;;;;18.58;100.00;101472.66;5070215;28;20501;-42
2021/09/25 05:46:07;;;;;;;6.03;2.70;;;;;;;18.59;100.00;101474.31;5069070;28;20468;-35
2021/09/25 05:48:35;;;;;;;4.88;2.13;;;;;;;18.60;100.00;101478.81;5069900;28;20604;-35
2021/09/25 05:51:04;;;;;;;4.97;2.25;;;;;;;18.61;100.00;101482.47;5067733;28;20044;-39
2021/09/25 05:53:32;;;;;;;8.70;2.75;;;;;;;18.62;100.00;101484.13;5071370;28;20094;-40
2021/09/25 05:56:01;;;;;;;10.85;3.65;;;;;;;18.64;100.00;101484.63;5070777;28;20040;-40
2021/09/25 05:58:29;;;;;;;5.55;2.72;;;;;;;18.64;100.00;101482.63;5070466;28;20538;-34
2021/09/25 06:00:57;;;;;;;9.23;4.10;;;;;;;18.66;100.00;101485.09;5070679;28;20056;-39
2021/09/25 06:03:25;;;;;;;6.28;2.90;;;;;;;18.65;100.00;101483.44;5062629;28;20044;-38
2021/09/25 06:05:53;;;;;;;5.85;2.92;;;;;;;18.67;100.00;101490.44;5068012;28;20071;-38
2021/09/25 06:08:21;;;;;;;10.30;4.13;;;;;;;18.68;100.00;101482.78;5067827;28;20056;-39
2021/09/25 06:10:49;;;;;;;10.60;3.63;;;;;;;18.71;100.00;101487.75;5069618;28;20080;-39
2021/09/25 06:13:18;;;;;;;10.95;3.28;;;;;;;18.71;100.00;101488.59;5069647;28;20056;-39
2021/09/25 06:15:46;;;;;;;7.47;2.97;;;;;;;18.72;100.00;101490.25;5051626;28;20562;-37
2021/09/25 06:18:14;;;;;;;5.40;2.88;;;;;;;18.73;100.00;101491.91;5066122;28;20497;-40
2021/09/25 06:20:42;;;;;;;6.38;2.95;;;;;;;18.73;100.00;101497.56;5070064;28;20046;-36
2021/09/25 06:23:10;;;;;;;9.40;3.30;;;;;;;18.74;100.00;101493.56;5068886;28;20048;-40
2021/09/25 06:25:38;;;;;;;6.03;2.78;;;;;;;18.75;100.00;101492.41;5069367;28;20079;-44
2021/09/25 06:28:06;;;;;;;6.75;3.15;;;;;;;18.79;100.00;101495.34;5069605;28;20597;-35
2021/09/25 06:30:40;;;;;;;6.13;2.60;;;;;;;18.79;100.00;101490.53;5070054;28;20071;-41
2021/09/25 06:33:08;;;;;;;7.07;2.95;;;;;;;18.81;100.00;101504.34;5067692;28;20052;-36
2021/09/25 06:35:36;;;;;;;7.65;3.22;;;;;;;18.83;100.00;101499.16;5069809;28;20154;-40
2021/09/25 06:38:04;;;;;;;10.32;4.07;;;;;;;18.85;100.00;101503.31;5068388;28;20528;-39
2021/09/25 06:40:32;;;;;;;12.05;3.45;;;;;;;18.86;100.00;101502.16;5066477;28;20040;-37
2021/09/25 06:43:00;;;;;;;11.07;3.15;;;;;;;18.88;100.00;101505.47;5068449;28;20051;-40
2021/09/25 06:45:32;;;;;;;9.93;4.22;;;;;;;18.89;100.00;101497.81;5069707;28;20053;-36
2021/09/25 06:48:01;;;;;;;5.15;2.80;;;;;;;18.92;100.00;101502.81;5068829;28;20052;-39
2021/09/25 06:50:29;;;;;;;8.77;3.33;;;;;;;18.96;100.00;101514.28;5069629;28;20452;-38
2021/09/25 06:52:57;;;;;;;8.55;3.65;;;;;;;18.99;100.00;101499.41;5069172;28;20090;-44
2021/09/25 06:55:25;;;;;;;8.57;3.42;;;;;;;19.00;100.00;101501.06;5069834;28;20058;-44
2021/09/25 06:57:53;;;;;;;6.97;2.70;;;;;;;19.03;100.00;101511.72;5069491;28;20456;-39
2021/09/25 07:00:21;;;;;;;8.43;3.40;;;;;;;19.08;100.00;101512.38;5068080;28;20052;-42
2021/09/25 07:02:48;;;;;;;8.57;2.80;;;;;;;19.15;100.00;101504.19;5069277;28;20064;-38
2021/09/25 07:05:18;;;;;;;10.45;4.10;;;;;;;19.22;100.00;101506.44;5069225;28;20046;-36
2021/09/25 07:07:46;;;;;;;7.97;3.20;;;;;;;19.31;100.00;101512.06;5068461;28;20072;-36
2021/09/25 07:10:14;;;;;;;6.80;2.83;;;;;;;19.38;100.00;101503.88;5069498;28;20076;-42
2021/09/25 07:12:42;;;;;;;6.38;2.95;;;;;;;19.45;100.00;101512.63;5069688;28;21559;-37
2021/09/25 07:15:12;;;;;;;7.07;2.90;;;;;;;19.49;100.00;101517.28;5068866;28;20076;-43
2021/09/25 07:17:40;;;;;;;7.03;2.90;;;;;;;19.52;100.00;101521.44;5069219;28;20048;-37
2021/09/25 07:20:09;;;;;;;8.52;3.15;;;;;;;19.58;100.00;101522.91;5069202;28;20500;-41
2021/09/25 07:22:38;;;;;;;6.45;3.03;;;;;;;19.60;100.00;101523.38;5068762;28;20513;-38
2021/09/25 07:25:07;;;;;;;5.10;2.33;;;;;;;19.65;100.00;101533.66;5069227;28;20048;-43
2021/09/25 07:27:35;;;;;;;5.65;2.58;;;;;;;19.72;100.00;101533.97;5069213;28;20540;-42
2021/09/25 07:30:09;;;;;;;5.35;2.72;;;;;;;19.78;100.00;101529.75;5072236;28;20044;-39
2021/09/25 07:32:37;;;;;;;7.00;3.15;;;;;;;19.84;100.00;101532.03;5072610;28;20143;-40
2021/09/25 07:35:06;;;;;;;8.15;3.28;;;;;;;19.90;100.00;101541.16;5072513;28;20509;-40
2021/09/25 07:37:34;;;;;;;6.78;2.55;;;;;;;19.95;100.00;101533.28;5072525;28;20041;-40
2021/09/25 07:40:05;;;;;;;5.05;2.45;;;;;;;20.06;100.00;101539.34;5072562;28;20048;-39
2021/09/25 07:42:33;;;;;;;4.47;2.00;;;;;;;20.12;100.00;101548.47;5072269;28;20146;-40
2021/09/25 07:45:01;;;;;;;4.07;1.98;;;;;;;20.18;100.00;101553.56;5072253;28;20369;-37
2021/09/25 07:47:28;;;;;;;6.45;2.42;;;;;;;20.22;100.00;101554.50;5060525;28;20258;-41
2021/09/25 07:49:56;;;;;;;4.13;2.00;;;;;;;20.28;100.00;101555.13;5069534;28;20660;-40
2021/09/25 07:52:24;;;;;;;7.47;3.10;;;;;;;20.33;100.00;101546.44;5072398;28;20401;-37
2021/09/25 07:54:52;;;;;;;4.80;2.30;;;;;;;20.36;100.00;101554.25;5072118;28;20049;-38
2021/09/25 07:57:21;;;;;;;6.75;2.45;;;;;;;20.39;100.00;101555.56;5071824;28;20040;-38
2021/09/25 07:59:49;;;;;;;7.97;2.45;;;;;;;20.36;100.00;101557.06;5071831;28;20053;-36
2021/09/25 08:02:17;;;;;;;5.32;2.50;;;;;;;20.41;100.00;101556.03;5072158;28;20064;-37
2021/09/25 08:04:45;;;;;;;4.65;2.40;;;;;;;20.45;100.00;101559.84;5071857;28;20037;-38
2021/09/25 08:07:13;;;;;;;4.32;1.98;;;;;;;20.51;100.00;101566.94;5070192;28;20120;-40
2021/09/25 08:09:41;;;;;;;4.60;1.70;;;;;;;20.54;100.00;101560.59;5072161;28;20052;-39
2021/09/25 08:12:11;;;;;;;4.18;2.20;;;;;;;20.58;100.00;101567.22;5071724;28;20045;-35
2021/09/25 08:14:40;;;;;;;4.55;2.05;;;;;;;20.63;100.00;101570.63;5072348;28;20044;-36
2021/09/25 08:17:08;;;;;;;3.53;2.15;;;;;;;20.69;99.86;101567.59;5068899;28;20063;-37
2021/09/25 08:19:37;;;;;;;4.57;1.92;;;;;;;20.73;99.05;101568.56;5071350;28;20102;-39
2021/09/25 08:22:06;;;;;;;4.80;2.20;;;;;;;20.77;98.53;101572.34;5071900;28;20453;-38
2021/09/25 08:24:34;;;;;;;5.13;2.35;;;;;;;20.83;97.90;101573.75;5071467;28;20059;-39
2021/09/25 08:27:02;;;;;;;3.72;1.90;;;;;;;20.89;97.97;101576.03;5071744;28;20045;-41
2021/09/25 08:29:30;;;;;;;4.05;1.90;;;;;;;21.04;97.75;101579.34;5072182;28;20052;-35
2021/09/25 08:31:59;;;;;;;3.97;2.08;;;;;;;21.12;96.52;101573.59;5070931;28;20405;-39
2021/09/25 08:34:27;;;;;;;8.18;2.38;;;;;;;21.19;96.66;101578.66;5072140;28;20056;-38
2021/09/25 08:36:55;;;;;;;4.47;2.20;;;;;;;21.22;95.78;101583.66;5071383;28;20485;-40
2021/09/25 08:39:23;;;;;;;3.92;1.70;;;;;;;21.24;95.63;101581.28;5071016;28;20545;-37
2021/09/25 08:41:52;;;;;;;5.10;2.10;;;;;;;21.29;95.52;101587.56;5071486;28;20056;-37
2021/09/25 08:44:21;;;;;;;5.20;2.40;;;;;;;21.36;94.67;101591.84;5072025;28;20098;-41
2021/09/25 08:46:48;;;;;;;6.25;2.63;;;;;;;21.34;94.20;101595.03;5071060;28;20564;-36
2021/09/25 08:49:18;;;;;;;9.00;2.72;;;;;;;21.31;94.31;101599.41;5071661;28;20409;-41
2021/09/25 08:51:46;;;;;;;6.28;2.90;;;;;;;21.28;94.18;101602.94;5071189;28;20414;-40
2021/09/25 08:54:14;;;;;;;5.75;2.78;;;;;;;21.28;94.04;101610.63;5071146;28;20080;-40
2021/09/25 08:56:41;;;;;;;6.57;2.22;;;;;;;21.24;94.01;101602.00;5071413;28;20055;-31
2021/09/25 08:59:09;;;;;;;5.57;2.38;;;;;;;21.23;93.82;101605.19;5071444;28;20052;-42
2021/09/25 09:01:42;;;;;;;4.82;1.73;;;;;;;21.29;94.02;101603.78;5070821;28;20064;-34
2021/09/25 09:04:12;;;;;;;3.67;1.60;;;;;;;21.40;94.01;101599.28;5069447;28;20052;-35
2021/09/25 09:06:41;;;;;;;6.07;2.15;;;;;;;21.54;93.37;101599.78;5070930;28;20135;-39
2021/09/25 09:09:10;;;;;;;4.43;1.92;;;;;;;21.61;93.00;101611.34;5070879;28;20413;-34
2021/09/25 09:11:43;;;;;;;3.90;1.75;;;;;;;21.74;92.63;101614.19;5053741;28;20080;-40
2021/09/25 09:14:14;;;;;;;3.60;1.52;;;;;;;21.84;92.01;101602.31;5070454;28;20132;-40
2021/09/25 09:16:42;;;;;;;4.55;2.00;;;;;;;21.87;91.48;101607.28;5071195;28;20057;-36
2021/09/25 09:19:19;;;;;;;4.78;1.88;;;;;;;21.85;90.88;101601.13;5067255;28;20064;-39
2021/09/25 09:21:50;;;;;;;4.18;2.70;;;;;;;21.83;90.36;101610.03;5070610;28;20087;-40
2021/09/25 09:24:17;;;;;;;4.85;2.10;;;;;;;21.84;90.25;101608.84;5070723;28;20076;-37
2021/09/25 09:26:46;;;;;;;5.95;1.90;;;;;;;21.89;89.81;101619.97;5071145;28;20041;-35
2021/09/25 09:29:17;;;;;;;4.55;1.70;;;;;;;21.89;89.73;101604.94;5069715;28;20554;-38
2021/09/25 09:31:45;;;;;;;4.43;1.67;;;;;;;22.01;89.82;101613.44;5070940;28;20052;-40
2021/09/25 09:34:16;;;;;;;3.63;1.92;;;;;;;22.16;89.53;101618.41;5070573;28;20048;-39
2021/09/25 09:36:44;;;;;;;3.72;1.50;;;;;;;22.31;88.86;101622.50;5070539;28;20339;-42
2021/09/25 09:39:15;;;;;;;4.50;1.63;;;;;;;22.44;88.04;101618.41;5070297;28;20131;-42
2021/09/25 09:41:46;;;;;;;3.30;1.67;;;;;;;22.47;86.40;101622.56;5070852;28;20106;-39
2021/09/25 09:44:16;;;;;;;3.95;2.13;;;;;;;22.45;86.22;101613.56;5070510;28;20052;-39
2021/09/25 09:46:45;;;;;;;4.70;2.10;;;;;;;22.49;86.34;101626.69;5070914;28;20519;-39
2021/09/25 09:49:15;;;;;;;4.50;2.10;;;;;;;22.50;85.22;101630.38;5069827;28;20472;-37
2021/09/25 09:51:46;;;;;;;4.75;2.00;;;;;;;22.45;85.00;101627.78;5070205;28;20068;-37
2021/09/25 09:54:22;;;;;;;7.45;2.45;;;;;;;22.42;84.87;101628.50;5069875;28;20058;-39
2021/09/25 09:56:53;;;;;;;4.35;2.00;;;;;;;22.40;84.88;101628.03;5059575;28;20060;-36
2021/09/25 09:59:21;;;;;;;2.90;1.50;;;;;;;22.42;84.73;101628.50;5070375;28;20497;-35
2021/09/25 10:01:49;;;;;;;3.90;1.52;;;;;;;22.52;85.25;101634.50;5070614;28;20128;-39
2021/09/25 10:04:18;;;;;;;4.82;1.80;;;;;;;22.66;84.41;101634.09;5069346;28;20048;-39
2021/09/25 10:06:48;;;;;;;5.88;1.67;;;;;;;22.81;84.57;101641.03;5070192;28;20052;-42
2021/09/25 10:09:19;;;;;;;4.30;1.98;;;;;;;22.94;83.67;101636.94;5069685;28;20053;-42
2021/09/25 10:11:50;;;;;;;3.47;1.92;;;;;;;23.00;83.21;101635.47;5069382;28;20131;-41
2021/09/25 10:14:20;;;;;;;2.80;1.45;;;;;;;23.05;83.20;101635.22;5070115;28;20041;-37
2021/09/25 10:16:48;;;;;;;3.25;1.67;;;;;;;23.11;82.41;101639.44;5070100;28;20044;-38
2021/09/25 10:19:18;;;;;;;3.85;1.90;;;;;;;23.10;81.53;101634.13;5069187;28;20128;-40
2021/09/25 10:21:48;;;;;;;3.75;1.75;;;;;;;23.12;81.33;101643.13;5070163;28;20048;-31
2021/09/25 10:24:24;;;;;;;3.92;1.75;;;;;;;23.11;80.88;101638.63;5069275;28;20547;-34
2021/09/25 10:26:54;;;;;;;4.13;1.80;;;;;;;23.09;80.70;101641.84;5067944;28;20127;-39
2021/09/25 10:29:23;;;;;;;4.60;1.80;;;;;;;23.12;80.23;101641.09;5069997;28;20083;-39
2021/09/25 10:32:25;;;;;;;3.20;1.40;;;;;;;23.05;80.12;101642.91;5069277;28;20056;-36
2021/09/25 10:35:04;;;;;;;3.33;1.50;;;;;;;23.00;80.43;101646.84;5056557;28;20036;-39
2021/09/25 10:37:35;;;;;;;3.53;1.80;;;;;;;23.02;80.74;101648.16;5069633;28;20072;-39
2021/09/25 10:40:13;;;;;;;5.75;2.10;;;;;;;23.02;80.49;101653.84;5069299;28;20192;-39
2021/09/25 10:42:43;;;;;;;4.07;1.77;;;;;;;22.96;80.27;101649.63;5070064;28;20114;-36
2021/09/25 10:45:20;;;;;;;5.60;1.90;;;;;;;22.84;80.30;101649.69;5069231;28;20060;-35
2021/09/25 10:48:05;;;;;;;5.28;1.85;;;;;;;22.73;80.61;101645.69;5069668;28;20056;-37
2021/09/25 10:50:35;;;;;;;4.90;1.50;;;;;;;22.64;81.09;101637.28;5066006;28;20057;-37
2021/09/25 10:53:10;;;;;;;5.60;1.98;;;;;;;22.65;81.15;101646.66;5068778;28;20049;-37
2021/09/25 10:55:40;;;;;;;4.25;2.20;;;;;;;22.64;81.10;101640.13;5069051;28;20044;-36
2021/09/25 10:58:27;;;;;;;5.60;1.92;;;;;;;22.63;80.57;101637.66;5068925;28;20132;-41
2021/09/25 11:01:01;;;;;;;4.03;1.65;;;;;;;22.55;81.22;101628.09;5067988;28;20551;-36
2021/09/25 11:03:53;;;;;;;3.65;1.52;;;;;;;22.60;81.06;101627.81;5070704;28;20132;-39
2021/09/25 11:06:22;;;;;;;;;;;;;;;22.51;80.01;101627.16;5073078;28;20552;-36
2021/09/25 11:08:53;;;;;;;5.40;1.90;;;;;;;22.52;81.82;101628.81;5073280;28;19966;-39
2021/09/25 11:11:39;;;;;;;3.13;1.30;;;;;;;22.55;81.56;101627.28;5072939;28;20129;-44
2021/09/25 11:14:10;;;;;;;2.85;1.48;;;;;;;22.53;81.54;101635.34;5073004;28;20127;-44
2021/09/25 11:16:47;;;;;;;3.47;1.40;;;;;;;22.50;81.40;101634.03;5072316;28;20049;-37
2021/09/25 11:19:43;;;;;;;4.22;1.30;;;;;;;22.54;81.54;101637.00;5070949;28;20091;-38
2021/09/25 11:22:16;;;;;;;4.43;1.40;;;;;;;22.56;81.65;101640.31;5072537;28;20195;-41
2021/09/25 11:24:46;;;;;;;4.40;1.80;;;;;;;22.55;80.98;101641.50;5062833;28;20105;-40
2021/09/25 11:27:17;;;;;;;4.22;2.00;;;;;;;22.54;80.96;101632.13;5073117;28;20113;-27